Terminal Aerodrome Forecast
Issued by NWS Corpus Christi, TX

Home | Current Version | Previous Version | Text Only | Print | Product List | Glossary On
Versions: 1 2 3 4 5 6 7 8 9 10 11 12 13 14 15 16 17 18 19 20
044
FTUS44 KCRP 162332
TAFVCT
TAF
KVCT 162332Z 1700/1724 16011KT P6SM SCT018 BKN025
     FM170400 14006KT P6SM BKN015
     FM170800 12005KT 4SM BR VCSH OVC006
      TEMPO 1709/1713 VRB03KT 2SM BR OVC004
     FM171600 10007KT P6SM VCTS BKN015CB OVC022
     FM171900 07007KT 6SM -TSRA BR SCT025CB OVC050=

USA.gov is the U.S. government's official web portal to all federal, state and local government web resources and services.